Time;durP1;ratioP1;P1;durP2;ratioP2;P2;SDS_P1;SDS_P2;PMS_P1;PMS_P2;Temp;Humidity;BMP_temperature;BMP_pressure;BME280_temperature;BME280_humidity;BME280_pressure;Samples;Min_cycle;Max_cycle;Signal;HPM_P1;HPM_P2
2022/03/25 00:02:37;;;;;;;;;;;19.10;29.70;;;;;;8330665;28;19917;-47
2022/03/25 00:06:38;;;;;;;;;;;19.10;29.70;;;;;;8331482;28;19971;-47
2022/03/25 00:10:38;;;;;;;;;;;19.10;29.70;;;;;;8313298;28;19928;-47
2022/03/25 00:14:38;;;;;;;;;;;19.10;29.70;;;;;;8330279;28;19959;-48
2022/03/25 00:18:39;;;;;;;;;;;19.10;29.70;;;;;;8330682;28;19971;-47
2022/03/25 00:22:40;;;;;;;;;;;19.10;29.70;;;;;;8343732;28;19918;-47
2022/03/25 00:26:40;;;;;;;;;;;19.10;29.70;;;;;;8362892;28;19970;-49
2022/03/25 00:30:41;;;;;;;;;;;19.10;29.70;;;;;;8363645;28;20292;-49
2022/03/25 00:34:41;;;;;;;;;;;19.10;29.80;;;;;;8363134;28;19917;-48
2022/03/25 00:38:41;;;;;;;;;;;19.00;29.70;;;;;;8362739;28;19921;-47
2022/03/25 00:42:42;;;;;;;;;;;19.00;29.70;;;;;;8363078;28;19925;-48
2022/03/25 00:46:42;;;;;;;;;;;19.00;29.70;;;;;;8363085;28;20029;-48
2022/03/25 00:50:43;;;;;;;;;;;19.00;29.70;;;;;;8362469;28;19925;-46
2022/03/25 00:54:43;;;;;;;;;;;19.00;29.80;;;;;;8362790;28;19928;-47
2022/03/25 00:58:44;;;;;;;;;;;19.00;29.70;;;;;;8362956;28;19917;-48
2022/03/25 01:02:45;;;;;;;;;;;19.00;29.70;;;;;;8362857;28;20293;-49
2022/03/25 01:06:45;;;;;;;;;;;19.00;29.70;;;;;;8362628;28;20482;-47
2022/03/25 01:10:46;;;;;;;;;;;18.90;29.70;;;;;;8362869;28;20419;-47
2022/03/25 01:14:46;;;;;;;;;;;19.00;29.70;;;;;;8362041;28;19921;-47
2022/03/25 01:18:47;;;;;;;;;;;19.00;29.80;;;;;;8362708;28;19924;-47
2022/03/25 01:22:48;;;;;;;;;;;18.90;29.70;;;;;;8362437;28;19917;-47
2022/03/25 01:26:48;;;;;;;;;;;19.00;29.80;;;;;;8361890;28;19912;-46
2022/03/25 01:30:49;;;;;;;;;;;18.90;29.70;;;;;;8362655;28;19999;-47
2022/03/25 01:34:49;;;;;;;;;;;18.90;29.80;;;;;;8362137;28;19916;-48
2022/03/25 01:38:50;;;;;;;;;;;18.90;29.70;;;;;;8361687;28;20046;-47
2022/03/25 01:42:50;;;;;;;;;;;18.90;29.80;;;;;;8362336;28;19917;-47
2022/03/25 01:46:54;;;;;;;;;;;18.90;29.80;;;;;;8361888;28;19913;-49
2022/03/25 01:50:55;;;;;;;;;;;18.90;29.80;;;;;;8361584;28;20396;-47
2022/03/25 01:55:13;;;;;;;;;;;18.90;29.80;;;;;;8362139;28;19921;-47
2022/03/25 01:59:13;;;;;;;;;;;18.90;29.70;;;;;;8361295;28;20012;-47
2022/03/25 02:03:16;;;;;;;;;;;18.80;29.70;;;;;;8364392;28;20389;-48
2022/03/25 02:07:16;;;;;;;;;;;18.90;29.70;;;;;;8367706;28;19924;-47
2022/03/25 02:11:18;;;;;;;;;;;18.80;29.70;;;;;;8367238;28;19928;-48
2022/03/25 02:15:29;;;;;;;;;;;18.80;29.80;;;;;;8367736;28;19917;-47
2022/03/25 02:19:30;;;;;;;;;;;18.80;29.80;;;;;;8367541;28;19917;-48
2022/03/25 02:23:30;;;;;;;;;;;18.80;29.80;;;;;;8367045;28;19921;-48
2022/03/25 02:27:31;;;;;;;;;;;18.80;29.80;;;;;;8367074;28;19924;-46
2022/03/25 02:31:31;;;;;;;;;;;18.70;29.80;;;;;;8367363;28;19964;-46
2022/03/25 02:35:36;;;;;;;;;;;18.70;29.70;;;;;;8366376;28;19928;-47
2022/03/25 02:39:36;;;;;;;;;;;18.70;29.80;;;;;;8366769;28;20405;-47
2022/03/25 02:43:37;;;;;;;;;;;18.70;29.80;;;;;;8366939;28;19987;-49
2022/03/25 02:47:37;;;;;;;;;;;18.70;29.70;;;;;;8366110;28;19935;-46
2022/03/25 02:51:38;;;;;;;;;;;18.70;29.80;;;;;;8367011;28;20286;-47
2022/03/25 02:55:38;;;;;;;;;;;18.70;29.80;;;;;;8366468;28;19927;-47
2022/03/25 02:59:39;;;;;;;;;;;18.70;29.80;;;;;;8365748;28;20373;-48
2022/03/25 03:03:40;;;;;;;;;;;18.70;29.80;;;;;;8366434;28;20289;-47
2022/03/25 03:07:40;;;;;;;;;;;18.70;29.80;;;;;;8366090;28;19917;-48
2022/03/25 03:11:41;;;;;;;;;;;18.60;29.80;;;;;;8365114;28;20373;-47
2022/03/25 03:15:41;;;;;;;;;;;18.60;29.80;;;;;;8365290;28;19951;-49
2022/03/25 03:19:42;;;;;;;;;;;18.60;29.70;;;;;;8365523;28;19925;-47
2022/03/25 03:23:42;;;;;;;;;;;18.60;29.80;;;;;;8364999;28;20300;-46
2022/03/25 03:27:42;;;;;;;;;;;18.60;29.80;;;;;;8365492;28;19921;-46
2022/03/25 03:31:43;;;;;;;;;;;18.60;29.80;;;;;;8365415;28;20031;-46
2022/03/25 03:35:44;;;;;;;;;;;18.60;29.80;;;;;;8364575;28;19970;-46
2022/03/25 03:39:44;;;;;;;;;;;18.60;29.80;;;;;;8365139;28;19923;-47
2022/03/25 03:43:44;;;;;;;;;;;18.60;29.80;;;;;;8364903;28;19917;-46
2022/03/25 03:47:45;;;;;;;;;;;18.50;29.80;;;;;;8364265;28;19966;-47
2022/03/25 03:51:46;;;;;;;;;;;18.50;29.80;;;;;;8364732;28;19927;-47
2022/03/25 03:55:47;;;;;;;;;;;18.50;29.80;;;;;;8364670;28;19928;-46
2022/03/25 03:59:47;;;;;;;;;;;18.50;29.80;;;;;;8363734;28;19917;-49
2022/03/25 04:03:48;;;;;;;;;;;18.50;29.80;;;;;;8364355;28;19917;-47
2022/03/25 04:07:48;;;;;;;;;;;18.50;29.80;;;;;;8363904;28;19920;-48
2022/03/25 04:11:49;;;;;;;;;;;18.50;29.80;;;;;;8363587;28;20074;-51
2022/03/25 04:15:50;;;;;;;;;;;18.50;29.80;;;;;;8363712;28;20361;-50
2022/03/25 04:19:50;;;;;;;;;;;18.40;29.80;;;;;;8363720;28;19917;-48
2022/03/25 04:23:51;;;;;;;;;;;18.40;29.80;;;;;;8362949;28;20004;-47
2022/03/25 04:27:53;;;;;;;;;;;18.40;29.80;;;;;;8363494;28;19920;-47
2022/03/25 04:31:54;;;;;;;;;;;18.40;29.80;;;;;;8363650;28;20288;-46
2022/03/25 04:35:54;;;;;;;;;;;18.40;29.90;;;;;;8362849;28;19992;-50
2022/03/25 04:39:54;;;;;;;;;;;18.40;29.80;;;;;;8363316;28;19917;-50
2022/03/25 04:43:55;;;;;;;;;;;18.40;29.80;;;;;;8363151;28;20440;-46
2022/03/25 04:47:55;;;;;;;;;;;18.40;29.90;;;;;;8362667;28;19939;-46
2022/03/25 04:51:56;;;;;;;;;;;18.40;29.90;;;;;;8363151;28;19924;-46
2022/03/25 04:55:56;;;;;;;;;;;18.40;29.90;;;;;;8362797;28;19925;-47
2022/03/25 04:59:57;;;;;;;;;;;18.40;29.90;;;;;;8362448;28;20003;-47
2022/03/25 05:03:57;;;;;;;;;;;18.40;29.90;;;;;;8361143;28;19917;-50
2022/03/25 05:07:58;;;;;;;;;;;18.30;29.80;;;;;;8330190;28;19914;-47
2022/03/25 05:11:59;;;;;;;;;;;18.40;29.90;;;;;;8329254;28;20011;-47
2022/03/25 05:15:59;;;;;;;;;;;18.30;29.80;;;;;;8329660;28;19917;-46
2022/03/25 05:20:03;;;;;;;;;;;18.30;29.80;;;;;;8329550;28;19924;-48
2022/03/25 05:24:04;;;;;;;;;;;18.30;29.80;;;;;;8329190;28;20055;-46
2022/03/25 05:28:04;;;;;;;;;;;18.30;29.80;;;;;;8329655;28;19913;-47
2022/03/25 05:32:05;;;;;;;;;;;18.30;29.90;;;;;;8329472;28;19925;-47
2022/03/25 05:36:06;;;;;;;;;;;18.30;29.80;;;;;;8330417;28;19918;-48
2022/03/25 05:40:07;;;;;;;;;;;18.30;30.20;;;;;;8335949;28;19917;-48
2022/03/25 05:44:08;;;;;;;;;;;18.30;29.80;;;;;;8335230;28;20027;-48
2022/03/25 05:48:08;;;;;;;;;;;18.30;29.80;;;;;;8335733;28;20354;-47
2022/03/25 05:52:09;;;;;;;;;;;18.30;29.80;;;;;;8335226;28;19948;-46
2022/03/25 05:56:10;;;;;;;;;;;18.30;29.80;;;;;;8335296;28;19921;-47
2022/03/25 06:00:11;;;;;;;;;;;18.30;29.80;;;;;;8335133;28;20392;-49
2022/03/25 06:04:11;;;;;;;;;;;18.30;29.80;;;;;;8335080;28;19917;-47
2022/03/25 06:08:12;;;;;;;;;;;18.30;29.90;;;;;;8334675;28;19913;-46
2022/03/25 06:12:14;;;;;;;;;;;18.20;29.80;;;;;;8334183;28;21303;-49
2022/03/25 06:16:15;;;;;;;;;;;18.30;29.80;;;;;;8334763;28;19921;-46
2022/03/25 06:20:19;;;;;;;;;;;18.30;29.80;;;;;;8337072;28;19913;-48
2022/03/25 06:24:19;;;;;;;;;;;18.20;29.80;;;;;;8334599;28;19920;-47
2022/03/25 06:28:22;;;;;;;;;;;18.30;29.80;;;;;;8334528;28;20374;-46
2022/03/25 06:32:22;;;;;;;;;;;18.30;29.80;;;;;;8333594;28;19925;-47
2022/03/25 06:36:23;;;;;;;;;;;18.40;29.60;;;;;;8334063;28;19928;-47
2022/03/25 06:40:24;;;;;;;;;;;18.60;29.50;;;;;;8333594;28;20408;-51
2022/03/25 06:44:25;;;;;;;;;;;18.70;29.30;;;;;;8333405;28;20285;-47
2022/03/25 06:48:26;;;;;;;;;;;18.80;29.10;;;;;;8333467;28;19963;-47
2022/03/25 06:52:26;;;;;;;;;;;18.80;29.00;;;;;;8333428;28;19929;-47
2022/03/25 06:56:27;;;;;;;;;;;18.80;29.10;;;;;;8332974;28;19921;-47
2022/03/25 07:00:28;;;;;;;;;;;18.70;29.20;;;;;;8333590;28;19970;-51
2022/03/25 07:04:28;;;;;;;;;;;18.70;29.30;;;;;;8332990;28;19913;-47
2022/03/25 07:08:29;;;;;;;;;;;18.60;29.40;;;;;;8332849;28;20358;-49
2022/03/25 07:12:29;;;;;;;;;;;18.50;29.40;;;;;;8332726;28;19925;-47
2022/03/25 07:16:31;;;;;;;;;;;18.50;29.50;;;;;;8332887;28;19917;-49
2022/03/25 07:20:31;;;;;;;;;;;18.50;29.50;;;;;;8332333;28;19928;-51
2022/03/25 07:24:31;;;;;;;;;;;18.50;29.60;;;;;;8332865;28;19914;-47
2022/03/25 07:28:32;;;;;;;;;;;18.40;29.60;;;;;;8332609;28;19917;-49
2022/03/25 07:32:32;;;;;;;;;;;18.40;29.60;;;;;;8331763;28;19931;-47
2022/03/25 07:36:33;;;;;;;;;;;18.50;29.60;;;;;;8332143;28;20020;-47
2022/03/25 07:40:34;;;;;;;;;;;18.50;29.50;;;;;;8331962;28;19920;-47
2022/03/25 07:44:35;;;;;;;;;;;18.60;29.50;;;;;;8331481;28;19924;-48
2022/03/25 07:48:36;;;;;;;;;;;18.60;29.50;;;;;;8331916;28;19919;-48
2022/03/25 07:52:36;;;;;;;;;;;18.60;29.50;;;;;;8331452;28;19929;-50
2022/03/25 07:56:37;;;;;;;;;;;18.60;29.50;;;;;;8331355;28;20426;-47
2022/03/25 08:00:39;;;;;;;;;;;18.60;29.50;;;;;;8330656;28;19914;-51
2022/03/25 08:04:39;;;;;;;;;;;18.60;29.60;;;;;;8331190;28;19963;-48
2022/03/25 08:08:40;;;;;;;;;;;18.50;29.60;;;;;;8331001;28;19956;-51
2022/03/25 08:12:40;;;;;;;;;;;18.50;29.70;;;;;;8330860;28;19925;-50
2022/03/25 08:16:45;;;;;;;;;;;18.50;29.70;;;;;;8331092;28;20358;-48
2022/03/25 08:20:47;;;;;;;;;;;18.50;29.70;;;;;;8330359;28;19924;-51
2022/03/25 08:29:06;;;;;;;;;;;18.50;29.80;;;;;;8331218;28;20336;-49
2022/03/25 08:33:07;;;;;;;;;;;18.50;29.80;;;;;;8330139;28;19944;-51
2022/03/25 08:37:07;;;;;;;;;;;18.50;29.80;;;;;;8330554;28;19917;-47
2022/03/25 08:41:07;;;;;;;;;;;18.50;29.80;;;;;;8329904;28;19913;-48
2022/03/25 08:45:08;;;;;;;;;;;18.50;29.80;;;;;;8330151;28;19914;-50
2022/03/25 08:49:10;;;;;;;;;;;18.50;29.80;;;;;;8330413;28;19990;-47
2022/03/25 08:53:10;;;;;;;;;;;18.50;29.80;;;;;;8329726;28;20302;-47
2022/03/25 08:57:11;;;;;;;;;;;18.50;29.90;;;;;;8330226;28;19927;-48
2022/03/25 09:01:11;;;;;;;;;;;18.50;29.80;;;;;;8330189;28;19913;-50
2022/03/25 09:05:12;;;;;;;;;;;18.60;29.90;;;;;;8329364;28;19917;-52
2022/03/25 09:09:13;;;;;;;;;;;18.50;29.80;;;;;;8330535;28;19959;-50
2022/03/25 09:13:13;;;;;;;;;;;18.60;29.80;;;;;;8336731;28;19929;-48
2022/03/25 09:17:14;;;;;;;;;;;18.60;29.90;;;;;;8336032;28;20000;-49
2022/03/25 09:21:14;;;;;;;;;;;18.60;29.90;;;;;;8336779;28;20031;-48
2022/03/25 09:25:15;;;;;;;;;;;18.60;29.80;;;;;;8336191;28;19921;-46
2022/03/25 09:29:15;;;;;;;;;;;18.70;29.90;;;;;;8336041;28;19979;-47
2022/03/25 09:33:16;;;;;;;;;;;18.60;29.80;;;;;;8335750;28;19925;-48
2022/03/25 09:37:16;;;;;;;;;;;18.60;29.90;;;;;;8335774;28;20003;-47
2022/03/25 09:41:17;;;;;;;;;;;18.70;29.90;;;;;;8335276;28;19913;-49
2022/03/25 09:45:18;;;;;;;;;;;18.70;29.90;;;;;;8335631;28;19913;-47
2022/03/25 09:49:20;;;;;;;;;;;18.70;29.90;;;;;;8335963;28;20441;-48
2022/03/25 09:53:20;;;;;;;;;;;18.70;29.90;;;;;;8334923;28;20349;-48
2022/03/25 09:57:20;;;;;;;;;;;18.70;29.90;;;;;;8335625;28;19928;-48
2022/03/25 10:01:21;;;;;;;;;;;18.70;29.90;;;;;;8335225;28;19913;-46
2022/03/25 10:05:21;;;;;;;;;;;18.70;29.90;;;;;;8334705;28;19925;-47
2022/03/25 10:09:22;;;;;;;;;;;18.80;29.90;;;;;;8335185;28;19988;-48
2022/03/25 10:13:22;;;;;;;;;;;18.80;29.90;;;;;;8334891;28;20445;-47
2022/03/25 10:17:23;;;;;;;;;;;18.80;29.90;;;;;;8334306;28;20362;-48
2022/03/25 10:21:24;;;;;;;;;;;18.80;29.90;;;;;;8334245;28;19917;-50
2022/03/25 10:26:00;;;;;;;;;;;18.80;29.90;;;;;;8334596;28;20014;-50
2022/03/25 10:30:03;;;;;;;;;;;18.80;29.90;;;;;;8320087;28;20381;-48
2022/03/25 10:34:03;;;;;;;;;;;18.90;29.90;;;;;;8334200;28;19928;-48
2022/03/25 10:38:04;;;;;;;;;;;18.90;29.90;;;;;;8333983;28;19913;-47
2022/03/25 10:42:06;;;;;;;;;;;18.90;29.90;;;;;;8333413;28;19918;-49
2022/03/25 10:46:06;;;;;;;;;;;18.90;29.90;;;;;;8333965;28;19917;-46
2022/03/25 10:50:12;;;;;;;;;;;18.90;29.90;;;;;;8333400;28;19913;-48
2022/03/25 10:54:13;;;;;;;;;;;19.00;29.90;;;;;;8333914;28;20401;-48
2022/03/25 10:58:14;;;;;;;;;;;19.00;29.90;;;;;;8333223;28;19929;-48
2022/03/25 11:02:14;;;;;;;;;;;19.00;29.90;;;;;;8333359;28;20282;-48
2022/03/25 11:06:15;;;;;;;;;;;19.00;29.90;;;;;;8333085;28;20398;-48
2022/03/25 11:10:19;;;;;;;;;;;19.00;29.90;;;;;;8359679;28;19917;-45
2022/03/25 11:14:20;;;;;;;;;;;19.10;29.90;;;;;;8365537;28;20336;-49
2022/03/25 11:18:21;;;;;;;;;;;19.10;29.90;;;;;;8365732;28;20000;-46
2022/03/25 11:22:23;;;;;;;;;;;19.10;29.90;;;;;;8366265;28;19912;-47
2022/03/25 11:26:24;;;;;;;;;;;19.10;29.90;;;;;;8365572;28;20011;-49
2022/03/25 11:30:30;;;;;;;;;;;19.10;29.90;;;;;;8365908;28;19963;-47
2022/03/25 11:34:30;;;;;;;;;;;19.20;29.90;;;;;;8364957;28;20381;-47
2022/03/25 11:38:31;;;;;;;;;;;19.20;29.90;;;;;;8365301;28;19921;-47
2022/03/25 11:42:39;;;;;;;;;;;19.20;29.90;;;;;;8366186;28;20393;-48
2022/03/25 11:46:58;;;;;;;;;;;19.20;29.90;;;;;;8365250;28;19965;-50
2022/03/25 11:50:59;;;;;;;;;;;19.20;29.90;;;;;;8364439;28;20301;-50
2022/03/25 11:55:01;;;;;;;;;;;19.30;29.90;;;;;;8364951;28;20385;-48
2022/03/25 11:59:02;;;;;;;;;;;19.30;29.90;;;;;;8364495;28;19963;-46
2022/03/25 12:03:03;;;;;;;;;;;19.30;29.90;;;;;;8363683;28;19940;-46
2022/03/25 12:07:08;;;;;;;;;;;19.30;29.90;;;;;;8364245;28;19921;-48
2022/03/25 12:11:10;;;;;;;;;;;19.40;29.90;;;;;;8363579;28;19998;-47
2022/03/25 12:15:13;;;;;;;;;;;19.40;29.90;;;;;;8364502;28;20397;-51
2022/03/25 12:19:28;;;;;;;;;;;19.40;29.90;;;;;;8363957;28;20393;-50
2022/03/25 12:23:29;;;;;;;;;;;19.40;29.80;;;;;;8363168;28;19917;-46
2022/03/25 12:27:29;;;;;;;;;;;19.40;29.80;;;;;;8363796;28;19916;-45
2022/03/25 12:31:30;;;;;;;;;;;19.40;29.80;;;;;;8363631;28;19931;-50
2022/03/25 12:35:31;;;;;;;;;;;19.40;29.80;;;;;;8363535;28;19963;-47
2022/03/25 12:39:31;;;;;;;;;;;19.50;29.80;;;;;;8363645;28;20336;-49
2022/03/25 12:43:32;;;;;;;;;;;19.50;29.80;;;;;;8363578;28;19917;-47
2022/03/25 12:47:34;;;;;;;;;;;19.50;29.80;;;;;;8362522;28;19917;-46
2022/03/25 12:51:34;;;;;;;;;;;19.50;29.80;;;;;;8363352;28;20016;-45
2022/03/25 12:55:35;;;;;;;;;;;19.60;29.90;;;;;;8363383;28;19927;-51
2022/03/25 12:59:36;;;;;;;;;;;19.50;29.80;;;;;;8362485;28;19917;-48
2022/03/25 13:03:36;;;;;;;;;;;19.60;29.90;;;;;;8363135;28;19917;-47
2022/03/25 13:07:37;;;;;;;;;;;19.60;29.80;;;;;;8363035;28;19924;-50
2022/03/25 13:11:38;;;;;;;;;;;19.60;29.80;;;;;;8362133;28;19925;-48
2022/03/25 13:15:40;;;;;;;;;;;19.60;29.80;;;;;;8363187;28;19917;-48
2022/03/25 13:19:40;;;;;;;;;;;19.60;29.70;;;;;;8362710;28;20373;-50
2022/03/25 13:23:41;;;;;;;;;;;19.60;29.70;;;;;;8362170;28;19917;-47
2022/03/25 13:27:42;;;;;;;;;;;19.70;29.70;;;;;;8362569;28;19917;-47
2022/03/25 13:31:49;;;;;;;;;;;19.70;29.70;;;;;;8362355;28;19924;-49
2022/03/25 13:35:51;;;;;;;;;;;19.70;29.80;;;;;;8362046;28;19917;-46
2022/03/25 13:39:52;;;;;;;;;;;19.70;29.70;;;;;;8348940;28;19948;-48
2022/03/25 13:44:03;;;;;;;;;;;19.70;29.70;;;;;;8338737;28;19925;-49
2022/03/25 13:48:11;;;;;;;;;;;19.70;29.70;;;;;;8339529;28;19925;-48
2022/03/25 13:52:11;;;;;;;;;;;19.70;29.70;;;;;;8349082;28;19925;-48
2022/03/25 13:56:22;;;;;;;;;;;19.70;29.70;;;;;;8361781;28;19928;-50
2022/03/25 14:00:30;;;;;;;;;;;19.70;29.70;;;;;;8366322;28;20351;-48
2022/03/25 14:04:31;;;;;;;;;;;19.70;29.70;;;;;;8356040;28;19917;-49
2022/03/25 14:08:35;;;;;;;;;;;19.70;29.70;;;;;;8342542;28;19975;-49
2022/03/25 14:12:36;;;;;;;;;;;19.70;29.70;;;;;;8346594;28;19932;-47
2022/03/25 14:16:36;;;;;;;;;;;19.80;29.60;;;;;;8339011;28;19925;-48
2022/03/25 14:20:37;;;;;;;;;;;19.80;29.60;;;;;;8332750;28;19918;-48
2022/03/25 14:24:38;;;;;;;;;;;19.80;29.70;;;;;;8341816;28;19916;-49
2022/03/25 14:28:38;;;;;;;;;;;19.80;29.70;;;;;;8357858;28;19952;-47
2022/03/25 14:32:39;;;;;;;;;;;19.80;29.60;;;;;;8333541;28;20271;-49
2022/03/25 14:36:40;;;;;;;;;;;19.80;29.60;;;;;;8347423;28;19917;-51
2022/03/25 14:40:41;;;;;;;;;;;19.80;29.70;;;;;;8340632;28;19925;-48
2022/03/25 14:44:41;;;;;;;;;;;19.80;29.70;;;;;;8343111;28;19928;-48
2022/03/25 14:48:42;;;;;;;;;;;19.80;29.60;;;;;;8350989;28;19921;-48
2022/03/25 14:52:42;;;;;;;;;;;19.90;29.70;;;;;;8340389;28;20018;-49
2022/03/25 14:56:43;;;;;;;;;;;19.80;29.60;;;;;;8338901;28;19925;-48
2022/03/25 15:00:43;;;;;;;;;;;19.90;29.70;;;;;;8366305;28;19921;-49
2022/03/25 15:04:44;;;;;;;;;;;19.90;29.70;;;;;;8354226;28;19927;-48
2022/03/25 15:08:44;;;;;;;;;;;19.90;29.60;;;;;;8351077;28;19960;-47
2022/03/25 15:12:48;;;;;;;;;;;19.90;29.70;;;;;;8358010;28;19921;-49
2022/03/25 15:16:48;;;;;;;;;;;19.90;29.60;;;;;;8340274;28;19917;-49
2022/03/25 15:20:49;;;;;;;;;;;19.90;29.60;;;;;;8346672;28;20408;-50
2022/03/25 15:24:49;;;;;;;;;;;19.90;29.70;;;;;;8349905;28;19923;-47
2022/03/25 15:28:49;;;;;;;;;;;19.90;29.70;;;;;;8352748;28;19917;-46
2022/03/25 15:37:09;;;;;;;;;;;19.90;29.60;;;;;;8350271;28;19971;-47
2022/03/25 15:41:10;;;;;;;;;;;19.90;29.60;;;;;;8360064;28;19917;-48
2022/03/25 15:45:10;;;;;;;;;;;19.90;29.60;;;;;;8360625;28;19944;-46
2022/03/25 15:49:11;;;;;;;;;;;19.90;29.60;;;;;;8342047;28;19917;-46
2022/03/25 15:53:11;;;;;;;;;;;20.00;29.60;;;;;;8330955;28;19925;-46
2022/03/25 15:57:13;;;;;;;;;;;19.90;29.50;;;;;;8333063;28;20379;-48
2022/03/25 16:01:13;;;;;;;;;;;19.90;29.60;;;;;;8338340;28;19921;-46
2022/03/25 16:05:14;;;;;;;;;;;19.90;29.50;;;;;;8336554;28;20031;-47
2022/03/25 16:09:16;;;;;;;;;;;20.00;29.60;;;;;;8337940;28;19995;-48
2022/03/25 16:13:17;;;;;;;;;;;20.00;29.60;;;;;;8332242;28;19925;-46
2022/03/25 16:17:17;;;;;;;;;;;20.00;29.60;;;;;;8335479;28;20298;-48
2022/03/25 16:21:18;;;;;;;;;;;19.90;29.50;;;;;;8331342;28;20435;-48
2022/03/25 16:25:20;;;;;;;;;;;20.00;29.50;;;;;;8330200;28;19936;-46
2022/03/25 16:29:20;;;;;;;;;;;20.00;29.50;;;;;;8353072;28;19943;-45
2022/03/25 16:33:23;;;;;;;;;;;20.00;29.60;;;;;;8328633;28;20130;-47
2022/03/25 16:37:23;;;;;;;;;;;19.90;29.50;;;;;;8363483;28;19912;-46
2022/03/25 16:41:24;;;;;;;;;;;20.00;29.50;;;;;;8362678;28;20396;-47
2022/03/25 16:45:26;;;;;;;;;;;20.00;29.50;;;;;;8363303;28;19917;-46
2022/03/25 16:49:26;;;;;;;;;;;19.90;29.50;;;;;;8363139;28;19913;-45
2022/03/25 16:53:27;;;;;;;;;;;19.90;29.50;;;;;;8362487;28;19933;-48
2022/03/25 16:57:27;;;;;;;;;;;19.90;29.50;;;;;;8363704;28;19920;-46
2022/03/25 17:01:28;;;;;;;;;;;20.00;29.50;;;;;;8356339;28;20391;-48
2022/03/25 17:05:28;;;;;;;;;;;19.90;29.50;;;;;;8329448;28;19924;-47
2022/03/25 17:09:29;;;;;;;;;;;19.90;29.50;;;;;;8329776;28;20015;-45
2022/03/25 17:13:29;;;;;;;;;;;19.90;29.50;;;;;;8329641;28;19925;-46
2022/03/25 17:17:30;;;;;;;;;;;19.90;29.40;;;;;;8329528;28;19913;-46
2022/03/25 17:21:31;;;;;;;;;;;20.00;29.50;;;;;;8329914;28;19917;-50
2022/03/25 17:25:31;;;;;;;;;;;19.90;29.50;;;;;;8329472;28;19921;-50
2022/03/25 17:29:32;;;;;;;;;;;19.90;29.50;;;;;;8329057;28;20011;-51
2022/03/25 17:33:36;;;;;;;;;;;19.90;29.50;;;;;;8332963;28;19948;-49
2022/03/25 17:37:36;;;;;;;;;;;19.90;29.40;;;;;;8336371;28;20016;-46
2022/03/25 17:41:42;;;;;;;;;;;19.90;29.50;;;;;;8335200;28;19917;-47
2022/03/25 17:45:42;;;;;;;;;;;19.90;29.40;;;;;;8342301;28;19917;-47
2022/03/25 17:49:43;;;;;;;;;;;19.90;29.40;;;;;;8335574;28;19921;-46
2022/03/25 17:53:44;;;;;;;;;;;19.90;29.40;;;;;;8334916;28;19971;-46
2022/03/25 17:57:45;;;;;;;;;;;19.90;29.40;;;;;;8335719;28;19960;-49
2022/03/25 18:01:45;;;;;;;;;;;19.90;29.40;;;;;;8334959;28;19971;-46
2022/03/25 18:05:47;;;;;;;;;;;19.90;29.30;;;;;;8334626;28;19917;-48
2022/03/25 18:09:47;;;;;;;;;;;19.90;29.30;;;;;;8334903;28;19920;-46
2022/03/25 18:13:48;;;;;;;;;;;19.90;29.30;;;;;;8334902;28;20286;-47
2022/03/25 18:17:48;;;;;;;;;;;19.90;29.30;;;;;;8334495;28;19914;-49
2022/03/25 18:21:51;;;;;;;;;;;19.90;29.30;;;;;;8334651;28;19924;-48
2022/03/25 18:25:52;;;;;;;;;;;19.90;29.30;;;;;;8334479;28;19935;-47
2022/03/25 18:29:52;;;;;;;;;;;19.90;29.30;;;;;;8333849;28;19917;-48
2022/03/25 18:33:53;;;;;;;;;;;19.90;29.20;;;;;;8333978;28;19926;-48
2022/03/25 18:37:56;;;;;;;;;;;19.90;29.20;;;;;;8334410;28;19919;-52
2022/03/25 18:41:58;;;;;;;;;;;19.90;29.20;;;;;;8333287;28;19999;-45
2022/03/25 18:45:59;;;;;;;;;;;19.90;29.30;;;;;;8333706;28;20397;-47
2022/03/25 18:50:00;;;;;;;;;;;19.80;29.20;;;;;;8333932;28;19917;-49
2022/03/25 18:54:00;;;;;;;;;;;19.80;29.20;;;;;;8333132;28;19925;-46
2022/03/25 18:58:01;;;;;;;;;;;19.80;29.20;;;;;;8334066;28;19944;-46
2022/03/25 19:02:05;;;;;;;;;;;19.90;29.20;;;;;;8333344;28;19998;-48
2022/03/25 19:06:05;;;;;;;;;;;19.90;29.20;;;;;;8332697;28;19917;-47
2022/03/25 19:10:06;;;;;;;;;;;19.80;29.20;;;;;;8333200;28;19949;-47
2022/03/25 19:14:07;;;;;;;;;;;19.80;29.20;;;;;;8332623;28;19925;-47
2022/03/25 19:18:08;;;;;;;;;;;19.80;29.20;;;;;;8333020;28;19920;-46
2022/03/25 19:22:08;;;;;;;;;;;19.80;29.10;;;;;;8332912;28;19917;-45
2022/03/25 19:26:09;;;;;;;;;;;19.80;29.10;;;;;;8332106;28;20293;-48
2022/03/25 19:30:11;;;;;;;;;;;19.90;29.20;;;;;;8332319;28;19924;-50
2022/03/25 19:34:12;;;;;;;;;;;19.80;29.20;;;;;;8332501;28;20305;-50
2022/03/25 19:38:12;;;;;;;;;;;19.80;29.10;;;;;;8332564;28;20286;-47
2022/03/25 19:42:13;;;;;;;;;;;19.80;29.10;;;;;;8331973;28;19925;-47
2022/03/25 19:46:15;;;;;;;;;;;19.80;29.20;;;;;;8331985;28;20275;-47
2022/03/25 19:50:15;;;;;;;;;;;19.80;29.10;;;;;;8331502;28;19914;-50
2022/03/25 19:54:16;;;;;;;;;;;19.80;29.10;;;;;;8330725;28;20020;-49
2022/03/25 19:58:17;;;;;;;;;;;19.80;29.10;;;;;;8331627;28;20004;-46
2022/03/25 20:02:17;;;;;;;;;;;19.80;29.20;;;;;;8331054;28;20307;-46
2022/03/25 20:06:18;;;;;;;;;;;19.80;29.10;;;;;;8331073;28;19917;-46
2022/03/25 20:10:18;;;;;;;;;;;19.80;29.10;;;;;;8331157;28;20362;-46
2022/03/25 20:14:19;;;;;;;;;;;19.80;29.10;;;;;;8330610;28;20417;-47
2022/03/25 20:18:19;;;;;;;;;;;19.80;29.10;;;;;;8331416;28;19992;-47
2022/03/25 20:22:20;;;;;;;;;;;19.80;29.10;;;;;;8330857;28;20298;-46
2022/03/25 20:26:20;;;;;;;;;;;19.80;29.10;;;;;;8330461;28;19913;-47
2022/03/25 20:30:24;;;;;;;;;;;19.80;29.10;;;;;;8330623;28;19921;-51
2022/03/25 20:34:25;;;;;;;;;;;19.80;29.20;;;;;;8331115;28;20361;-48
2022/03/25 20:38:25;;;;;;;;;;;19.80;29.10;;;;;;8330434;28;19917;-50
2022/03/25 20:42:26;;;;;;;;;;;19.80;29.00;;;;;;8330590;28;19924;-49
2022/03/25 20:46:26;;;;;;;;;;;19.80;29.10;;;;;;8330381;28;19936;-47
2022/03/25 20:50:27;;;;;;;;;;;19.80;29.60;;;;;;8329702;28;20358;-47
2022/03/25 20:54:27;;;;;;;;;;;19.80;29.00;;;;;;8330631;28;20296;-49
2022/03/25 20:58:28;;;;;;;;;;;19.80;29.00;;;;;;8330456;28;19913;-50
2022/03/25 21:02:29;;;;;;;;;;;19.80;29.00;;;;;;8329485;28;19975;-47
2022/03/25 21:06:29;;;;;;;;;;;19.80;29.10;;;;;;8332228;28;20051;-47
2022/03/25 21:10:29;;;;;;;;;;;19.80;29.00;;;;;;8345174;28;19917;-49
2022/03/25 21:14:30;;;;;;;;;;;19.80;29.00;;;;;;8369310;28;19917;-47
2022/03/25 21:18:30;;;;;;;;;;;19.80;29.00;;;;;;8370278;28;19913;-49
2022/03/25 21:22:31;;;;;;;;;;;19.80;29.20;;;;;;8369607;28;20018;-46
2022/03/25 21:26:32;;;;;;;;;;;19.80;29.20;;;;;;8368968;28;20377;-50
2022/03/25 21:30:32;;;;;;;;;;;19.80;29.20;;;;;;8369377;28;19962;-47
2022/03/25 21:34:33;;;;;;;;;;;19.80;29.30;;;;;;8369681;28;19920;-48
2022/03/25 21:38:33;;;;;;;;;;;19.80;29.20;;;;;;8368644;28;19917;-47
2022/03/25 21:42:34;;;;;;;;;;;19.80;29.20;;;;;;8368852;28;19920;-47
2022/03/25 21:46:34;;;;;;;;;;;19.80;29.20;;;;;;8368772;28;19921;-47
2022/03/25 21:50:36;;;;;;;;;;;19.80;29.20;;;;;;8368034;28;19920;-46
2022/03/25 21:54:36;;;;;;;;;;;19.80;29.20;;;;;;8368787;28;20127;-46
2022/03/25 21:58:37;;;;;;;;;;;19.80;29.20;;;;;;8368682;28;19924;-48
2022/03/25 22:02:37;;;;;;;;;;;19.80;29.20;;;;;;8367805;28;20011;-48
2022/03/25 22:06:38;;;;;;;;;;;19.80;29.10;;;;;;8368109;28;19939;-47
2022/03/25 22:10:38;;;;;;;;;;;19.70;29.10;;;;;;8367883;28;20377;-51
2022/03/25 22:14:39;;;;;;;;;;;19.80;29.10;;;;;;8367751;28;19983;-50
2022/03/25 22:18:39;;;;;;;;;;;19.70;29.10;;;;;;8367192;28;19917;-47
2022/03/25 22:22:40;;;;;;;;;;;19.70;29.10;;;;;;8367744;28;19917;-46
2022/03/25 22:26:40;;;;;;;;;;;19.70;29.10;;;;;;8367218;28;19924;-49
2022/03/25 22:30:42;;;;;;;;;;;19.70;29.10;;;;;;8367758;28;19924;-47
2022/03/25 22:34:43;;;;;;;;;;;19.70;29.10;;;;;;8367448;28;20259;-50
2022/03/25 22:38:43;;;;;;;;;;;19.70;29.20;;;;;;8366817;28;19920;-46
2022/03/25 22:42:44;;;;;;;;;;;19.70;29.20;;;;;;8367087;28;20293;-46
2022/03/25 22:46:44;;;;;;;;;;;19.60;29.20;;;;;;8366963;28;20011;-51
2022/03/25 22:50:45;;;;;;;;;;;19.70;29.20;;;;;;8366207;28;19975;-48
2022/03/25 22:54:45;;;;;;;;;;;19.70;29.20;;;;;;8366931;28;20261;-48
2022/03/25 22:58:46;;;;;;;;;;;19.60;29.10;;;;;;8366576;28;19924;-50
2022/03/25 23:02:46;;;;;;;;;;;19.60;29.10;;;;;;8365167;28;20019;-47
2022/03/25 23:06:48;;;;;;;;;;;19.60;29.10;;;;;;8365106;28;20023;-46
2022/03/25 23:10:49;;;;;;;;;;;19.60;29.10;;;;;;8366307;28;19979;-47
2022/03/25 23:14:49;;;;;;;;;;;19.60;29.10;;;;;;8365822;28;19966;-49
2022/03/25 23:18:50;;;;;;;;;;;19.60;29.20;;;;;;8366037;28;20008;-46
2022/03/25 23:22:51;;;;;;;;;;;19.60;29.20;;;;;;8348039;28;19923;-47
2022/03/25 23:26:52;;;;;;;;;;;19.60;29.20;;;;;;8365149;28;19917;-46
2022/03/25 23:30:52;;;;;;;;;;;19.60;29.20;;;;;;8365694;28;19972;-49